Time;durP1;ratioP1;P1;durP2;ratioP2;P2;SDS_P1;SDS_P2;PMS_P1;PMS_P2;Temp;Humidity;BMP_temperature;BMP_pressure;BME280_temperature;BME280_humidity;BME280_pressure;Samples;Min_cycle;Max_cycle;Signal;HPM_P1;HPM_P2
2023/05/09 00:00:23;;;;;;;;;;;;;;;19.15;45.78;101632.58;103312;1288;61378;-83
2023/05/09 00:02:50;;;;;;;;;;;;;;;19.15;45.77;101632.57;103405;1294;72987;-84
2023/05/09 00:05:16;;;;;;;;;;;;;;;19.15;45.92;101629.73;103498;1288;61440;-83
2023/05/09 00:07:42;;;;;;;;;;;;;;;19.15;45.78;101626.52;103359;1293;62194;-83
2023/05/09 00:10:07;;;;;;;;;;;;;;;19.14;45.81;101623.70;103517;1285;61439;-84
2023/05/09 00:12:36;;;;;;;;;;;;;;;19.15;45.76;101628.85;103486;1286;61497;-84
2023/05/09 00:15:04;;;;;;;;;;;;;;;19.14;45.89;101626.02;103503;1291;74597;-84
2023/05/09 00:17:35;;;;;;;;;;;;;;;19.14;45.59;101622.98;103662;1286;61365;-84
2023/05/09 00:20:04;;;;;;;;;;;;;;;19.14;45.73;101615.67;103567;1285;61400;-83
2023/05/09 00:22:29;;;;;;;;;;;;;;;19.14;45.70;101619.40;103514;1291;73739;-84
2023/05/09 00:24:57;;;;;;;;;;;;;;;19.13;45.77;101623.55;103529;1286;74288;-83
2023/05/09 00:27:22;;;;;;;;;;;;;;;19.13;45.68;101623.73;103417;1292;61981;-83
2023/05/09 00:29:48;;;;;;;;;;;;;;;19.14;45.76;101624.44;103553;1285;61411;-82
2023/05/09 00:32:16;;;;;;;;;;;;;;;19.13;45.53;101625.88;103536;1285;62519;-83
2023/05/09 00:34:42;;;;;;;;;;;;;;;19.13;45.57;101623.39;103571;1291;61581;-84
2023/05/09 00:37:10;;;;;;;;;;;;;;;19.13;45.69;101626.42;103539;1291;62644;-83
2023/05/09 00:39:35;;;;;;;;;;;;;;;19.13;45.67;101626.44;103465;1290;62399;-83
2023/05/09 00:42:02;;;;;;;;;;;;;;;19.13;45.53;101627.70;103449;1294;61528;-84
2023/05/09 00:44:27;;;;;;;;;;;;;;;19.13;45.55;101626.08;103431;1289;61388;-83
2023/05/09 00:46:53;;;;;;;;;;;;;;;19.13;45.66;101624.83;103085;1296;61513;-83
2023/05/09 00:49:25;;;;;;;;;;;;;;;19.12;45.48;101621.83;103017;1291;61364;-84
2023/05/09 00:51:51;;;;;;;;;;;;;;;19.12;45.64;101618.44;103160;1297;72437;-82
2023/05/09 00:54:25;;;;;;;;;;;;;;;19.12;45.40;101622.00;103051;1296;62275;-83
2023/05/09 00:56:51;;;;;;;;;;;;;;;19.12;45.40;101625.93;103052;1296;61542;-84
2023/05/09 00:59:17;;;;;;;;;;;;;;;19.12;45.48;101628.10;103129;1291;61375;-84
2023/05/09 01:01:44;;;;;;;;;;;;;;;19.12;45.33;101629.34;103060;1295;61417;-82
2023/05/09 01:04:18;;;;;;;;;;;;;;;19.12;45.43;101624.35;102845;1291;61990;-84
2023/05/09 01:07:08;;;;;;;;;;;;;;;19.12;45.37;101627.22;103114;1291;61466;-83
2023/05/09 01:09:48;;;;;;;;;;;;;;;19.11;45.23;101626.86;103098;1291;61522;-82
2023/05/09 01:12:33;;;;;;;;;;;;;;;19.11;45.49;101629.38;103099;1292;72754;-82
2023/05/09 01:15:01;;;;;;;;;;;;;;;19.11;45.30;101628.47;103051;1291;74377;-83
2023/05/09 01:17:48;;;;;;;;;;;;;;;19.11;45.39;101630.80;103579;1291;61471;-83
2023/05/09 01:20:32;;;;;;;;;;;;;;;19.12;45.20;101630.62;103507;1288;61418;-83
2023/05/09 01:23:17;;;;;;;;;;;;;;;19.11;45.27;101633.29;103512;1290;73397;-83
2023/05/09 01:25:52;;;;;;;;;;;;;;;19.11;45.34;101631.52;103627;1286;74454;-84
2023/05/09 01:28:23;;;;;;;;;;;;;;;19.12;45.17;101632.23;103506;1286;61935;-82
2023/05/09 01:30:55;;;;;;;;;;;;;;;19.11;45.30;101626.70;103497;1291;61282;-84
2023/05/09 01:33:21;;;;;;;;;;;;;;;19.11;45.30;101631.00;103463;1286;73599;-84
2023/05/09 01:35:48;;;;;;;;;;;;;;;19.11;45.28;101628.65;103577;1290;61407;-83
2023/05/09 01:38:16;;;;;;;;;;;;;;;19.11;45.28;101625.46;103412;1294;61597;-84
2023/05/09 01:40:42;;;;;;;;;;;;;;;19.11;45.31;101626.89;103562;1291;61312;-84
2023/05/09 01:43:13;;;;;;;;;;;;;;;19.11;45.18;101624.40;103770;1287;72361;-83
2023/05/09 01:45:42;;;;;;;;;;;;;;;19.10;45.15;101620.88;103550;1291;74586;-83
2023/05/09 01:48:10;;;;;;;;;;;;;;;19.10;45.11;101619.61;103672;1288;61391;-83
2023/05/09 01:50:35;;;;;;;;;;;;;;;19.10;45.14;101622.98;103621;1287;61410;-83
2023/05/09 01:53:01;;;;;;;;;;;;;;;19.10;45.19;101623.02;103537;1291;61466;-83
2023/05/09 01:55:36;;;;;;;;;;;;;;;19.09;45.22;101618.78;103722;1288;61650;-85
2023/05/09 01:58:05;;;;;;;;;;;;;;;19.10;45.14;101619.97;103533;1291;61330;-83
2023/05/09 02:00:33;;;;;;;;;;;;;;;19.09;45.10;101615.39;103546;1287;61303;-84
2023/05/09 02:03:03;;;;;;;;;;;;;;;19.09;45.08;101616.08;103305;1290;72355;-84
2023/05/09 02:05:32;;;;;;;;;;;;;;;19.09;45.13;101614.84;103677;1288;61358;-83
2023/05/09 02:08:00;;;;;;;;;;;;;;;19.09;45.11;101617.37;103724;1284;62452;-83
2023/05/09 02:10:30;;;;;;;;;;;;;;;19.09;45.00;101617.35;103645;1286;62533;-83
2023/05/09 02:13:04;;;;;;;;;;;;;;;19.08;45.15;101617.36;103608;1288;72209;-85
2023/05/09 02:15:30;;;;;;;;;;;;;;;19.08;45.04;101617.39;103854;1288;61348;-84
2023/05/09 02:17:59;;;;;;;;;;;;;;;19.08;44.87;101617.72;103547;1286;61336;-84
2023/05/09 02:20:24;;;;;;;;;;;;;;;19.08;44.96;101617.04;103658;1285;61730;-85
2023/05/09 02:22:53;;;;;;;;;;;;;;;19.08;44.98;101621.67;103617;1291;72316;-83
2023/05/09 02:25:18;;;;;;;;;;;;;;;19.08;44.86;101625.06;103616;1291;61403;-83
2023/05/09 02:27:44;;;;;;;;;;;;;;;19.07;44.99;101625.45;103427;1290;61348;-83
2023/05/09 02:30:17;;;;;;;;;;;;;;;19.08;44.83;101624.55;103543;1285;61478;-83
2023/05/09 02:32:46;;;;;;;;;;;;;;;19.08;44.72;101625.26;103606;1289;72565;-82
2023/05/09 02:35:12;;;;;;;;;;;;;;;19.07;44.88;101629.56;103678;1288;74460;-83
2023/05/09 02:37:37;;;;;;;;;;;;;;;19.07;44.85;101628.50;103569;1285;61478;-83
2023/05/09 02:40:05;;;;;;;;;;;;;;;19.07;44.84;101629.94;103680;1285;61382;-83
2023/05/09 02:42:36;;;;;;;;;;;;;;;19.07;44.84;101631.55;103709;1291;61413;-84
2023/05/09 02:45:01;;;;;;;;;;;;;;;19.07;44.74;101634.92;103599;1285;74541;-83
2023/05/09 02:47:27;;;;;;;;;;;;;;;19.07;44.73;101633.52;103659;1284;62557;-83
2023/05/09 02:49:53;;;;;;;;;;;;;;;19.07;44.85;101633.33;103592;1291;61393;-84
2023/05/09 02:52:18;;;;;;;;;;;;;;;19.06;44.74;101632.64;103620;1285;61481;-84
2023/05/09 02:54:47;;;;;;;;;;;;;;;19.06;44.75;101630.14;103633;1289;61381;-85
2023/05/09 02:57:12;;;;;;;;;;;;;;;19.06;44.62;101629.41;103658;1288;74343;-83
2023/05/09 02:59:41;;;;;;;;;;;;;;;19.06;44.75;101631.92;103623;1291;61397;-82
2023/05/09 03:02:10;;;;;;;;;;;;;;;19.06;44.73;101636.21;103738;1289;61600;-84
2023/05/09 03:04:38;;;;;;;;;;;;;;;19.06;44.72;101641.20;103606;1284;72520;-82
2023/05/09 03:07:04;;;;;;;;;;;;;;;19.06;44.59;101637.30;103573;1290;74387;-83
2023/05/09 03:09:33;;;;;;;;;;;;;;;19.06;44.73;101641.75;103857;1285;61390;-84
2023/05/09 03:12:02;;;;;;;;;;;;;;;19.06;44.54;101641.41;103904;1290;61338;-83
2023/05/09 03:14:28;;;;;;;;;;;;;;;19.05;44.56;101645.70;104389;1288;73364;-81
2023/05/09 03:16:54;;;;;;;;;;;;;;;19.06;44.61;101643.74;104397;1285;62677;-82
2023/05/09 03:19:21;;;;;;;;;;;;;;;19.06;44.64;101646.05;104178;1290;61418;-83
2023/05/09 03:21:47;;;;;;;;;;;;;;;19.06;44.52;101649.94;103634;1289;61807;-82
2023/05/09 03:24:16;;;;;;;;;;;;;;;19.07;44.45;101654.21;103526;1290;71561;-83
2023/05/09 03:26:44;;;;;;;;;;;;;;;19.06;44.51;101655.48;103651;1290;61411;-83
2023/05/09 03:29:10;;;;;;;;;;;;;;;19.07;44.47;101658.48;103680;1288;61388;-83
2023/05/09 03:31:35;;;;;;;;;;;;;;;19.07;44.63;101661.33;103625;1289;61391;-84
2023/05/09 03:34:01;;;;;;;;;;;;;;;19.06;44.52;101659.93;103639;1291;61311;-82
2023/05/09 03:36:34;;;;;;;;;;;;;;;19.06;44.45;101662.63;103662;1291;61560;-84
2023/05/09 03:39:03;;;;;;;;;;;;;;;19.07;44.45;101669.01;103569;1285;61254;-83
2023/05/09 03:41:30;;;;;;;;;;;;;;;19.06;44.39;101669.58;103597;1292;61338;-84
2023/05/09 03:43:56;;;;;;;;;;;;;;;19.06;44.30;101665.66;103769;1287;73458;-83
2023/05/09 03:46:22;;;;;;;;;;;;;;;19.06;44.32;101675.45;103997;1291;61510;-83
2023/05/09 03:48:48;;;;;;;;;;;;;;;19.06;44.41;101682.23;103691;1286;61390;-83
2023/05/09 03:51:22;;;;;;;;;;;;;;;19.06;44.22;101676.73;103726;1289;61297;-84
2023/05/09 03:53:51;;;;;;;;;;;;;;;19.06;44.48;101682.77;103629;1292;72257;-84
2023/05/09 03:56:32;;;;;;;;;;;;;;;;;;;;;
2023/05/09 03:58:58;;;;;;;;;;;;;;;19.03;44.19;101689.71;103705;1289;61490;-83
2023/05/09 04:01:24;;;;;;;;;;;;;;;19.01;44.18;101693.55;103782;1285;61434;-81
2023/05/09 04:03:51;;;;;;;;;;;;;;;18.99;44.04;101693.65;103351;1292;62390;-83
2023/05/09 04:06:33;;;;;;;;;;;;;;;18.98;44.20;101693.71;103558;1290;74500;-83
2023/05/09 04:09:02;;;;;;;;;;;;;;;18.96;44.08;101693.27;103592;1290;61287;-83
2023/05/09 04:11:33;;;;;;;;;;;;;;;18.96;44.08;101693.48;103614;1290;61289;-84
2023/05/09 04:14:23;;;;;;;;;;;;;;;18.94;43.98;101694.79;103885;1290;74619;-83
2023/05/09 04:16:49;;;;;;;;;;;;;;;18.92;43.81;101696.47;103152;1296;74547;-82
2023/05/09 04:19:14;;;;;;;;;;;;;;;18.90;43.77;101699.80;103136;1292;61435;-82
2023/05/09 04:21:42;;;;;;;;;;;;;;;18.88;43.79;101699.87;103344;1297;61511;-83
2023/05/09 04:24:08;;;;;;;;;;;;;;;18.86;43.76;101701.55;103381;1296;73456;-82
2023/05/09 04:26:37;;;;;;;;;;;;;;;18.80;43.66;101702.21;103163;1297;61411;-84
2023/05/09 04:29:04;;;;;;;;;;;;;;;18.72;43.62;101705.41;103984;1292;61299;-81
2023/05/09 04:31:30;;;;;;;;;;;;;;;18.63;43.62;101705.86;104413;1292;61626;-81
2023/05/09 04:33:57;;;;;;;;;;;;;;;18.57;43.53;101710.73;104361;1291;61391;-81
2023/05/09 04:36:22;;;;;;;;;;;;;;;18.44;43.48;101711.15;103885;1297;61380;-84
2023/05/09 04:38:48;;;;;;;;;;;;;;;18.39;43.66;101717.82;103561;1296;61479;-83
2023/05/09 04:41:13;;;;;;;;;;;;;;;18.37;43.65;101720.03;103316;1301;63309;-82
2023/05/09 04:43:39;;;;;;;;;;;;;;;18.37;43.43;101721.44;104066;1298;61338;-81
2023/05/09 04:46:06;;;;;;;;;;;;;;;18.29;43.52;101722.50;103910;1298;61326;-83
2023/05/09 04:48:32;;;;;;;;;;;;;;;18.25;43.47;101724.10;103738;1294;74301;-83
2023/05/09 04:50:57;;;;;;;;;;;;;;;18.19;43.30;101726.55;103828;1294;61390;-82
2023/05/09 04:53:24;;;;;;;;;;;;;;;18.15;43.38;101725.65;103932;1296;61944;-82
2023/05/09 04:55:50;;;;;;;;;;;;;;;18.13;43.31;101725.23;104604;1292;61767;-82
2023/05/09 04:58:16;;;;;;;;;;;;;;;17.85;42.83;101722.65;104339;1290;63412;-83
2023/05/09 05:00:41;;;;;;;;;;;;;;;17.56;43.07;101719.25;104541;1288;61327;-81
2023/05/09 05:03:07;;;;;;;;;;;;;;;17.52;43.19;101722.41;104777;1289;61342;-83
2023/05/09 05:05:33;;;;;;;;;;;;;;;17.51;43.23;101723.88;104638;1290;62340;-83
2023/05/09 05:07:59;;;;;;;;;;;;;;;17.51;43.47;101720.49;104853;1292;72547;-83
2023/05/09 05:10:26;;;;;;;;;;;;;;;17.60;43.49;101722.98;105125;1290;61387;-83
2023/05/09 05:12:51;;;;;;;;;;;;;;;17.70;43.53;101718.83;105325;1286;60608;-83
2023/05/09 05:15:18;;;;;;;;;;;;;;;17.79;43.41;101724.52;104930;1286;61403;-83
2023/05/09 05:17:44;;;;;;;;;;;;;;;17.86;43.39;101721.00;105250;1284;61250;-82
2023/05/09 05:20:10;;;;;;;;;;;;;;;17.94;43.47;101723.36;105107;1288;61195;-83
2023/05/09 05:22:36;;;;;;;;;;;;;;;17.99;43.25;101728.84;105246;1286;61353;-83
2023/05/09 05:25:03;;;;;;;;;;;;;;;18.04;43.20;101728.41;105046;1288;59459;-82
2023/05/09 05:27:29;;;;;;;;;;;;;;;18.09;43.13;101731.41;105065;1285;60039;-82
2023/05/09 05:29:55;;;;;;;;;;;;;;;18.11;43.23;101739.16;105201;1285;61257;-82
2023/05/09 05:32:20;;;;;;;;;;;;;;;18.17;43.16;101733.56;105435;1286;59397;-82
2023/05/09 05:34:45;;;;;;;;;;;;;;;18.21;43.17;101740.52;105560;1284;61240;-82
2023/05/09 05:37:11;;;;;;;;;;;;;;;18.23;43.25;101739.17;105527;1285;61406;-82
2023/05/09 05:39:37;;;;;;;;;;;;;;;18.28;43.12;101741.10;105569;1284;61227;-82
2023/05/09 05:42:02;;;;;;;;;;;;;;;18.33;43.18;101743.20;105375;1284;61327;-82
2023/05/09 05:44:29;;;;;;;;;;;;;;;18.38;43.10;101740.84;105137;1287;63091;-82
2023/05/09 05:46:54;;;;;;;;;;;;;;;18.40;43.06;101743.60;104914;1284;61288;-82
2023/05/09 05:49:20;;;;;;;;;;;;;;;18.43;43.11;101739.17;104897;1286;61337;-82
2023/05/09 05:51:45;;;;;;;;;;;;;;;18.47;43.16;101740.09;105252;1285;61414;-82
2023/05/09 05:54:11;;;;;;;;;;;;;;;18.51;42.98;101739.91;105298;1286;61444;-82
2023/05/09 05:56:37;;;;;;;;;;;;;;;18.54;42.97;101742.62;105711;1285;61237;-82
2023/05/09 05:59:02;;;;;;;;;;;;;;;18.57;43.00;101741.92;105839;1285;60182;-82
2023/05/09 06:01:28;;;;;;;;;;;;;;;18.58;42.86;101742.41;105638;1286;61291;-83
2023/05/09 06:03:54;;;;;;;;;;;;;;;18.52;42.82;101742.34;105415;1286;61282;-83
2023/05/09 06:06:21;;;;;;;;;;;;;;;18.44;42.98;101741.29;105509;1285;61284;-84
2023/05/09 06:08:48;;;;;;;;;;;;;;;18.30;42.89;101737.80;105294;1287;61451;-81
2023/05/09 06:11:15;;;;;;;;;;;;;;;18.23;43.04;101739.20;105310;1285;59977;-82
2023/05/09 06:13:43;;;;;;;;;;;;;;;18.23;43.18;101729.02;105833;1288;59790;-84
2023/05/09 06:16:09;;;;;;;;;;;;;;;18.30;43.34;101726.23;104824;1285;74993;-83
2023/05/09 06:18:36;;;;;;;;;;;;;;;18.34;43.13;101731.23;105032;1285;62435;-83
2023/05/09 06:21:03;;;;;;;;;;;;;;;18.17;42.92;101729.48;104541;1286;61600;-83
2023/05/09 06:23:28;;;;;;;;;;;;;;;18.10;42.99;101726.20;104804;1285;61289;-83
2023/05/09 06:25:54;;;;;;;;;;;;;;;18.08;42.97;101723.98;104943;1285;62031;-83
2023/05/09 06:28:19;;;;;;;;;;;;;;;18.10;43.09;101725.50;104870;1285;61262;-82
2023/05/09 06:30:45;;;;;;;;;;;;;;;18.15;43.03;101719.44;104762;1285;61397;-83
2023/05/09 06:33:10;;;;;;;;;;;;;;;18.10;42.92;101718.04;104990;1286;61399;-83
2023/05/09 06:35:36;;;;;;;;;;;;;;;18.03;42.85;101721.00;104892;1286;60266;-84
2023/05/09 06:38:01;;;;;;;;;;;;;;;18.00;43.00;101720.03;104672;1288;60497;-83
2023/05/09 06:40:27;;;;;;;;;;;;;;;18.04;42.92;101716.16;104704;1285;61337;-84
2023/05/09 06:42:54;;;;;;;;;;;;;;;18.06;43.02;101714.27;104797;1291;61442;-83
2023/05/09 06:45:19;;;;;;;;;;;;;;;18.08;43.05;101712.95;105134;1285;61263;-82
2023/05/09 06:47:46;;;;;;;;;;;;;;;18.01;42.94;101715.94;104954;1287;61201;-84
2023/05/09 06:50:11;;;;;;;;;;;;;;;17.94;43.04;101714.10;105330;1288;61416;-83
2023/05/09 06:52:37;;;;;;;;;;;;;;;17.91;43.03;101720.08;105626;1285;61322;-82
2023/05/09 06:55:08;;;;;;;;;;;;;;;17.72;42.73;101719.81;105517;1284;61419;-83
2023/05/09 06:57:35;;;;;;;;;;;;;;;17.54;42.97;101718.23;105496;1284;74039;-83
2023/05/09 07:00:14;;;;;;;;;;;;;;;17.44;43.06;101709.58;105850;1284;76605;-83
2023/05/09 07:02:40;;;;;;;;;;;;;;;17.34;43.09;101706.95;106024;1288;60847;-81
2023/05/09 07:05:07;;;;;;;;;;;;;;;17.35;43.38;101710.66;105841;1285;677162;-82
2023/05/09 07:07:33;;;;;;;;;;;;;;;17.32;43.35;101709.55;106398;1285;71275;-83
2023/05/09 07:10:03;;;;;;;;;;;;;;;17.27;43.41;101709.17;106294;1285;59380;-82
2023/05/09 07:12:34;;;;;;;;;;;;;;;17.36;43.43;101711.68;106174;1285;60845;-83
2023/05/09 07:15:00;;;;;;;;;;;;;;;17.30;43.47;101706.21;106177;1285;59609;-85
2023/05/09 07:17:28;;;;;;;;;;;;;;;17.26;43.41;101708.36;106161;1285;59556;-84
2023/05/09 07:19:55;;;;;;;;;;;;;;;17.31;43.67;101709.92;105894;1285;73609;-83
2023/05/09 07:22:20;;;;;;;;;;;;;;;17.40;43.76;101711.54;105583;1285;61388;-82
2023/05/09 07:24:46;;;;;;;;;;;;;;;17.48;43.55;101712.29;105930;1285;60481;-83
2023/05/09 07:27:11;;;;;;;;;;;;;;;17.57;43.74;101713.48;105755;1285;59708;-83
2023/05/09 07:29:37;;;;;;;;;;;;;;;17.70;43.70;101711.36;105718;1284;59766;-83
2023/05/09 07:32:03;;;;;;;;;;;;;;;17.82;43.79;101707.12;105427;1286;61342;-84
2023/05/09 07:34:28;;;;;;;;;;;;;;;17.90;43.59;101710.31;105453;1285;59409;-83
2023/05/09 07:36:54;;;;;;;;;;;;;;;17.66;43.05;101712.20;105715;1284;61362;-82
2023/05/09 07:39:19;;;;;;;;;;;;;;;17.34;43.05;101710.50;105580;1285;59584;-82
2023/05/09 07:41:45;;;;;;;;;;;;;;;17.07;43.26;101711.59;105439;1287;60579;-83
2023/05/09 07:44:11;;;;;;;;;;;;;;;16.90;43.34;101713.11;105762;1285;61196;-82
2023/05/09 07:46:40;;;;;;;;;;;;;;;16.84;43.46;101707.29;105520;1285;61033;-81
2023/05/09 07:49:06;;;;;;;;;;;;;;;16.84;43.65;101706.05;105586;1284;62785;-83
2023/05/09 07:51:33;;;;;;;;;;;;;;;16.90;43.72;101710.11;105304;1284;59662;-83
2023/05/09 07:53:58;;;;;;;;;;;;;;;16.96;43.65;101704.94;105340;1285;60142;-83
2023/05/09 07:56:25;;;;;;;;;;;;;;;16.99;43.68;101706.77;105345;1285;59971;-82
2023/05/09 07:58:51;;;;;;;;;;;;;;;17.09;43.68;101713.48;105468;1285;61249;-83
2023/05/09 08:01:16;;;;;;;;;;;;;;;17.18;43.72;101711.71;105332;1291;61308;-82
2023/05/09 08:03:42;;;;;;;;;;;;;;;17.22;43.54;101707.95;105447;1284;59939;-82
2023/05/09 08:06:08;;;;;;;;;;;;;;;17.12;43.41;101713.71;105518;1289;60987;-84
2023/05/09 08:08:33;;;;;;;;;;;;;;;17.10;43.62;101712.36;105398;1284;59519;-82
2023/05/09 08:10:59;;;;;;;;;;;;;;;17.04;43.39;101711.73;104371;1285;59472;-82
2023/05/09 08:13:26;;;;;;;;;;;;;;;16.97;43.46;101711.98;105388;1284;61261;-82
2023/05/09 08:15:52;;;;;;;;;;;;;;;16.87;43.35;101711.49;105568;1285;59701;-84
2023/05/09 08:18:18;;;;;;;;;;;;;;;16.76;43.45;101710.63;105613;1285;60430;-82
2023/05/09 08:20:45;;;;;;;;;;;;;;;16.76;43.41;101707.44;105803;1285;59640;-82
2023/05/09 08:23:10;;;;;;;;;;;;;;;16.71;43.41;101708.15;105623;1289;61390;-81
2023/05/09 08:25:39;;;;;;;;;;;;;;;16.70;43.57;101706.23;105383;1291;61386;-84
2023/05/09 08:28:07;;;;;;;;;;;;;;;16.77;43.62;101715.23;105519;1285;61263;-82
2023/05/09 08:30:32;;;;;;;;;;;;;;;16.74;43.39;101718.70;105641;1285;61867;-83
2023/05/09 08:32:58;;;;;;;;;;;;;;;16.60;43.43;101713.91;105731;1285;61410;-82
2023/05/09 08:35:23;;;;;;;;;;;;;;;16.54;43.60;101712.18;105720;1285;61346;-82
2023/05/09 08:37:49;;;;;;;;;;;;;;;16.64;43.62;101712.69;105368;1285;61439;-83
2023/05/09 08:40:15;;;;;;;;;;;;;;;16.61;43.45;101709.61;105213;1285;61205;-83
2023/05/09 08:42:41;;;;;;;;;;;;;;;16.44;43.41;101714.66;105036;1289;61045;-82
2023/05/09 08:45:10;;;;;;;;;;;;;;;16.37;43.53;101704.10;105014;1285;72739;-83
2023/05/09 08:47:38;;;;;;;;;;;;;;;16.48;43.71;101703.50;104518;1284;74305;-83
2023/05/09 08:50:04;;;;;;;;;;;;;;;16.57;43.70;101700.33;104812;1285;61124;-84
2023/05/09 08:52:34;;;;;;;;;;;;;;;16.67;43.63;101703.87;105157;1291;61227;-81
2023/05/09 08:55:00;;;;;;;;;;;;;;;16.72;43.56;101705.80;105144;1285;72311;-82
2023/05/09 08:57:26;;;;;;;;;;;;;;;16.73;43.55;101707.89;105002;1285;75356;-81
2023/05/09 08:59:54;;;;;;;;;;;;;;;16.74;43.47;101707.71;105253;1285;60054;-82
2023/05/09 09:02:29;;;;;;;;;;;;;;;16.79;43.51;101708.23;105615;1284;60414;-83
2023/05/09 09:04:56;;;;;;;;;;;;;;;16.86;43.56;101711.67;105468;1285;72516;-83
2023/05/09 09:07:22;;;;;;;;;;;;;;;16.87;43.59;101714.84;105258;1285;61379;-81
2023/05/09 09:09:48;;;;;;;;;;;;;;;16.92;43.56;101715.20;105382;1284;61455;-82
2023/05/09 09:12:14;;;;;;;;;;;;;;;17.07;43.64;101721.73;105405;1284;61371;-82
2023/05/09 09:14:41;;;;;;;;;;;;;;;17.16;43.62;101719.81;105174;1285;60102;-82
2023/05/09 09:17:07;;;;;;;;;;;;;;;17.20;43.56;101721.06;105242;1285;61273;-82
2023/05/09 09:19:33;;;;;;;;;;;;;;;17.19;43.44;101718.58;105196;1286;61181;-82
2023/05/09 09:21:59;;;;;;;;;;;;;;;17.12;43.33;101717.98;105107;1288;60122;-81
2023/05/09 09:24:26;;;;;;;;;;;;;;;17.05;43.50;101718.10;104854;1288;61249;-81
2023/05/09 09:26:51;;;;;;;;;;;;;;;17.09;43.57;101715.95;104637;1288;61163;-82
2023/05/09 09:29:17;;;;;;;;;;;;;;;17.21;43.65;101716.73;104739;1288;61654;-83
2023/05/09 09:31:43;;;;;;;;;;;;;;;17.33;43.72;101715.34;104814;1288;61511;-82
2023/05/09 09:34:09;;;;;;;;;;;;;;;17.45;43.53;101712.40;104723;1288;61318;-82
2023/05/09 09:36:37;;;;;;;;;;;;;;;17.55;43.49;101714.45;104513;1293;61394;-82
2023/05/09 09:39:06;;;;;;;;;;;;;;;17.61;43.39;101709.06;104751;1292;74542;-82
2023/05/09 09:41:48;;;;;;;;;;;;;;;17.55;43.35;101707.71;104660;1290;61161;-82
2023/05/09 09:44:17;;;;;;;;;;;;;;;17.53;43.32;101706.02;104975;1290;60714;-81
2023/05/09 09:46:43;;;;;;;;;;;;;;;17.48;43.30;101710.84;105257;1293;72682;-82
2023/05/09 09:49:11;;;;;;;;;;;;;;;17.51;43.37;101710.54;104663;1289;61350;-82
2023/05/09 09:51:36;;;;;;;;;;;;;;;17.58;43.40;101718.23;104648;1289;59589;-82
2023/05/09 09:54:03;;;;;;;;;;;;;;;17.66;43.29;101720.42;104639;1290;61420;-83
2023/05/09 09:56:39;;;;;;;;;;;;;;;17.67;43.28;101719.30;106215;1286;72588;-82
2023/05/09 09:59:09;;;;;;;;;;;;;;;17.69;43.39;101720.29;104454;1286;75731;-82
2023/05/09 10:01:35;;;;;;;;;;;;;;;17.75;43.27;101720.58;104957;1287;61209;-83
2023/05/09 10:04:01;;;;;;;;;;;;;;;17.79;43.22;101718.82;105222;1287;61391;-82
2023/05/09 10:06:27;;;;;;;;;;;;;;;17.75;43.05;101716.98;105167;1289;61337;-82
2023/05/09 10:08:52;;;;;;;;;;;;;;;17.69;43.17;101711.23;105401;1286;61363;-83
2023/05/09 10:11:18;;;;;;;;;;;;;;;17.66;43.27;101706.34;105343;1286;61288;-83
2023/05/09 10:13:44;;;;;;;;;;;;;;;17.68;43.15;101703.41;105571;1285;61279;-83
2023/05/09 10:16:10;;;;;;;;;;;;;;;17.67;43.39;101703.30;105453;1286;61309;-83
2023/05/09 10:18:36;;;;;;;;;;;;;;;17.72;43.31;101701.29;105042;1286;59978;-82
2023/05/09 10:21:03;;;;;;;;;;;;;;;17.78;43.37;101707.62;105130;1287;61404;-83
2023/05/09 10:23:30;;;;;;;;;;;;;;;17.85;43.47;101709.63;105235;1288;61363;-83
2023/05/09 10:26:15;;;;;;;;;;;;;;;17.92;43.30;101717.17;105024;1286;59918;-82
2023/05/09 10:28:41;;;;;;;;;;;;;;;17.99;43.39;101720.64;105019;1288;73383;-82
2023/05/09 10:31:27;;;;;;;;;;;;;;;18.04;43.33;101724.17;104823;1290;61266;-82
2023/05/09 10:33:54;;;;;;;;;;;;;;;18.09;43.32;101722.52;105005;1286;61174;-82
2023/05/09 10:36:21;;;;;;;;;;;;;;;18.12;43.37;101717.20;104674;1288;61414;-82
2023/05/09 10:38:47;;;;;;;;;;;;;;;18.11;43.32;101720.99;104618;1288;61384;-83
2023/05/09 10:41:14;;;;;;;;;;;;;;;18.13;43.29;101719.16;104724;1288;61973;-82
2023/05/09 10:43:40;;;;;;;;;;;;;;;18.11;43.35;101716.56;104665;1288;60044;-82
2023/05/09 10:46:06;;;;;;;;;;;;;;;18.08;43.21;101720.41;104845;1289;61380;-82
2023/05/09 10:48:32;;;;;;;;;;;;;;;18.09;43.33;101712.54;104327;1288;62658;-82
2023/05/09 10:51:01;;;;;;;;;;;;;;;18.13;43.25;101711.65;104496;1288;61311;-82
2023/05/09 10:53:39;;;;;;;;;;;;;;;18.17;43.15;101711.67;104626;1288;61285;-83
2023/05/09 10:56:04;;;;;;;;;;;;;;;18.21;43.34;101706.67;104665;1291;61327;-82
2023/05/09 10:58:32;;;;;;;;;;;;;;;18.24;43.22;101708.51;104659;1288;60984;-82
2023/05/09 11:01:02;;;;;;;;;;;;;;;18.27;43.27;101705.34;105054;1288;75601;-83
2023/05/09 11:03:28;;;;;;;;;;;;;;;18.22;43.10;101714.81;105505;1288;59876;-82
2023/05/09 11:05:54;;;;;;;;;;;;;;;18.09;43.25;101716.45;105534;1288;59789;-82
2023/05/09 11:08:23;;;;;;;;;;;;;;;18.01;43.20;101714.49;105607;1287;59634;-82
2023/05/09 11:10:50;;;;;;;;;;;;;;;17.95;43.27;101718.67;105512;1286;73677;-82
2023/05/09 11:13:19;;;;;;;;;;;;;;;17.81;43.27;101719.26;105716;1286;59543;-82
2023/05/09 11:15:51;;;;;;;;;;;;;;;17.70;43.44;101718.84;105583;1286;60449;-82
2023/05/09 11:18:17;;;;;;;;;;;;;;;17.63;43.37;101718.95;105560;1290;73510;-82
2023/05/09 11:20:43;;;;;;;;;;;;;;;17.65;43.47;101719.22;105483;1288;61417;-83
2023/05/09 11:23:11;;;;;;;;;;;;;;;17.69;43.46;101720.11;105168;1286;59684;-82
2023/05/09 11:25:40;;;;;;;;;;;;;;;17.69;43.49;101721.52;104531;1288;61258;-81
2023/05/09 11:28:05;;;;;;;;;;;;;;;17.70;43.43;101720.94;104778;1286;73546;-82
2023/05/09 11:30:50;;;;;;;;;;;;;;;17.72;43.52;101724.42;104801;1287;61626;-82
2023/05/09 11:33:25;;;;;;;;;;;;;;;17.74;43.44;101723.98;104790;1287;61327;-83
2023/05/09 11:36:09;;;;;;;;;;;;;;;17.76;43.54;101724.08;104335;1288;61224;-81
2023/05/09 11:38:41;;;;;;;;;;;;;;;17.77;43.50;101725.30;104484;1288;73357;-81
2023/05/09 11:41:07;;;;;;;;;;;;;;;17.79;43.78;101725.57;104422;1288;74581;-82
2023/05/09 11:43:35;;;;;;;;;;;;;;;17.74;43.58;101730.92;104407;1288;61427;-83
2023/05/09 11:46:01;;;;;;;;;;;;;;;17.55;43.72;101720.70;104509;1288;61209;-80
2023/05/09 11:48:27;;;;;;;;;;;;;;;17.52;43.93;101720.45;104446;1288;61257;-82
2023/05/09 11:50:54;;;;;;;;;;;;;;;17.53;43.89;101721.14;104199;1292;61574;-81
2023/05/09 11:53:19;;;;;;;;;;;;;;;17.45;43.67;101718.95;104387;1288;61435;-82
2023/05/09 11:55:45;;;;;;;;;;;;;;;17.30;43.73;101713.55;104285;1288;61430;-83
2023/05/09 11:58:13;;;;;;;;;;;;;;;17.26;43.91;101710.29;104460;1288;61307;-82
2023/05/09 12:00:44;;;;;;;;;;;;;;;17.24;43.94;101708.97;104566;1291;61554;-82
2023/05/09 12:03:11;;;;;;;;;;;;;;;17.15;43.87;101711.10;104990;1287;60633;-81
2023/05/09 12:05:38;;;;;;;;;;;;;;;17.06;43.92;101707.56;105330;1288;61258;-81
2023/05/09 12:08:04;;;;;;;;;;;;;;;17.02;43.97;101703.45;105318;1286;73429;-81
2023/05/09 12:10:33;;;;;;;;;;;;;;;17.03;44.13;101699.49;105208;1287;61286;-81
2023/05/09 12:12:59;;;;;;;;;;;;;;;17.03;44.00;101703.56;104830;1288;61225;-81
2023/05/09 12:15:25;;;;;;;;;;;;;;;16.94;44.06;101695.21;104875;1287;60471;-81
2023/05/09 12:18:03;;;;;;;;;;;;;;;16.89;44.13;101693.43;104806;1287;61414;-81
2023/05/09 12:20:49;;;;;;;;;;;;;;;16.94;44.26;101688.98;104500;1287;74450;-81
2023/05/09 12:23:39;;;;;;;;;;;;;;;16.95;44.08;101684.86;104403;1287;61315;-81
2023/05/09 12:26:05;;;;;;;;;;;;;;;16.90;44.20;101685.05;103995;1294;61281;-82
2023/05/09 12:28:56;;;;;;;;;;;;;;;16.97;44.23;101682.48;103841;1300;61418;-82
2023/05/09 12:31:22;;;;;;;;;;;;;;;17.01;44.18;101672.52;103157;1299;74556;-82